sensor_id;sensor_type;location;lat;lon;timestamp;pressure;altitude;pressure_sealevel;temperature;humidity
6020;BME280;3038;51.122;6.840;2022-10-31T00:01:54;101775.50;;;14.12;78.37
6020;BME280;3038;51.122;6.840;2022-10-31T00:04:19;101773.81;;;14.11;78.57
6020;BME280;3038;51.122;6.840;2022-10-31T00:06:45;101768.94;;;14.07;78.74
6020;BME280;3038;51.122;6.840;2022-10-31T00:09:10;101775.63;;;14.03;78.87
6020;BME280;3038;51.122;6.840;2022-10-31T00:11:36;101773.25;;;14.00;78.98
6020;BME280;3038;51.122;6.840;2022-10-31T00:14:01;101778.88;;;13.97;78.53
6020;BME280;3038;51.122;6.840;2022-10-31T00:16:28;101785.22;;;13.96;79.04
6020;BME280;3038;51.122;6.840;2022-10-31T00:18:56;101788.53;;;13.89;79.62
6020;BME280;3038;51.122;6.840;2022-10-31T00:21:22;101785.31;;;13.86;79.50
6020;BME280;3038;51.122;6.840;2022-10-31T00:23:48;101775.09;;;13.81;79.21
6020;BME280;3038;51.122;6.840;2022-10-31T00:26:13;101782.28;;;13.81;79.46
6020;BME280;3038;51.122;6.840;2022-10-31T00:28:39;101775.44;;;13.78;79.31
6020;BME280;3038;51.122;6.840;2022-10-31T00:31:07;101777.56;;;13.75;79.55
6020;BME280;3038;51.122;6.840;2022-10-31T00:33:34;101779.25;;;13.76;79.14
6020;BME280;3038;51.122;6.840;2022-10-31T00:35:59;101781.22;;;13.74;79.42
6020;BME280;3038;51.122;6.840;2022-10-31T00:38:25;101786.03;;;13.70;79.64
6020;BME280;3038;51.122;6.840;2022-10-31T00:40:50;101780.31;;;13.65;80.03
6020;BME280;3038;51.122;6.840;2022-10-31T00:43:15;101779.63;;;13.63;79.91
6020;BME280;3038;51.122;6.840;2022-10-31T00:45:42;101773.44;;;13.62;80.46
6020;BME280;3038;51.122;6.840;2022-10-31T00:48:08;101771.47;;;13.65;80.62
6020;BME280;3038;51.122;6.840;2022-10-31T00:50:34;101793.66;;;13.65;81.06
6020;BME280;3038;51.122;6.840;2022-10-31T00:52:59;101805.63;;;13.61;81.15
6020;BME280;3038;51.122;6.840;2022-10-31T00:55:24;101820.97;;;13.59;81.53
6020;BME280;3038;51.122;6.840;2022-10-31T00:57:50;101809.06;;;13.71;80.71
6020;BME280;3038;51.122;6.840;2022-10-31T01:00:15;101812.44;;;13.73;81.01
6020;BME280;3038;51.122;6.840;2022-10-31T01:02:41;101801.44;;;13.76;80.58
6020;BME280;3038;51.122;6.840;2022-10-31T01:05:07;101801.16;;;13.87;80.53
6020;BME280;3038;51.122;6.840;2022-10-31T01:07:35;101809.06;;;13.89;80.73
6020;BME280;3038;51.122;6.840;2022-10-31T01:10:01;101810.34;;;13.85;80.52
6020;BME280;3038;51.122;6.840;2022-10-31T01:12:26;101810.63;;;14.00;80.71
6020;BME280;3038;51.122;6.840;2022-10-31T01:14:51;101809.69;;;14.09;79.91
6020;BME280;3038;51.122;6.840;2022-10-31T01:17:17;101811.38;;;14.10;80.31
6020;BME280;3038;51.122;6.840;2022-10-31T01:19:42;101814.34;;;14.07;79.97
6020;BME280;3038;51.122;6.840;2022-10-31T01:22:07;101807.38;;;14.14;79.61
6020;BME280;3038;51.122;6.840;2022-10-31T01:24:33;101796.25;;;14.19;79.77
6020;BME280;3038;51.122;6.840;2022-10-31T01:26:58;101788.41;;;14.17;79.67
6020;BME280;3038;51.122;6.840;2022-10-31T01:29:24;101781.00;;;14.11;79.67
6020;BME280;3038;51.122;6.840;2022-10-31T01:31:49;101782.94;;;14.01;79.56
6020;BME280;3038;51.122;6.840;2022-10-31T01:34:16;101786.91;;;13.97;79.99
6020;BME280;3038;51.122;6.840;2022-10-31T01:36:43;101786.91;;;13.97;79.85
6020;BME280;3038;51.122;6.840;2022-10-31T01:39:14;101774.00;;;13.92;80.23
6020;BME280;3038;51.122;6.840;2022-10-31T01:41:46;101763.97;;;13.86;80.26
6020;BME280;3038;51.122;6.840;2022-10-31T01:46:55;101756.84;;;13.69;80.92
6020;BME280;3038;51.122;6.840;2022-10-31T01:49:23;101766.66;;;13.68;80.59
6020;BME280;3038;51.122;6.840;2022-10-31T01:52:01;101762.03;;;13.70;80.72
6020;BME280;3038;51.122;6.840;2022-10-31T01:54:32;101766.34;;;13.71;80.63
6020;BME280;3038;51.122;6.840;2022-10-31T01:56:59;101761.81;;;13.63;80.75
6020;BME280;3038;51.122;6.840;2022-10-31T01:59:29;101757.22;;;13.56;80.60
6020;BME280;3038;51.122;6.840;2022-10-31T02:01:56;101757.97;;;13.48;80.54
6020;BME280;3038;51.122;6.840;2022-10-31T02:04:23;101756.72;;;13.34;81.96
6020;BME280;3038;51.122;6.840;2022-10-31T02:06:55;101757.47;;;13.27;81.87
6020;BME280;3038;51.122;6.840;2022-10-31T02:09:22;101759.59;;;13.23;81.47
6020;BME280;3038;51.122;6.840;2022-10-31T02:11:52;101759.16;;;13.18;81.99
6020;BME280;3038;51.122;6.840;2022-10-31T02:14:25;101761.16;;;13.16;82.63
6020;BME280;3038;51.122;6.840;2022-10-31T02:16:53;101751.78;;;13.12;82.22
6020;BME280;3038;51.122;6.840;2022-10-31T02:22:14;101751.84;;;13.02;82.49
6020;BME280;3038;51.122;6.840;2022-10-31T02:30:22;101759.59;;;12.96;82.59
6020;BME280;3038;51.122;6.840;2022-10-31T02:36:14;101776.13;;;12.81;83.14
6020;BME280;3038;51.122;6.840;2022-10-31T02:39:25;101778.78;;;12.81;82.58
6020;BME280;3038;51.122;6.840;2022-10-31T02:44:29;101778.50;;;12.75;83.20
6020;BME280;3038;51.122;6.840;2022-10-31T02:47:03;101766.19;;;12.74;83.21
6020;BME280;3038;51.122;6.840;2022-10-31T02:49:38;101761.75;;;12.65;82.75
6020;BME280;3038;51.122;6.840;2022-10-31T02:52:29;101760.22;;;12.62;83.17
6020;BME280;3038;51.122;6.840;2022-10-31T02:54:55;101769.34;;;12.59;82.58
6020;BME280;3038;51.122;6.840;2022-10-31T02:57:25;101777.78;;;12.55;83.01
6020;BME280;3038;51.122;6.840;2022-10-31T02:59:55;101775.78;;;12.57;82.68
6020;BME280;3038;51.122;6.840;2022-10-31T03:02:51;101775.22;;;12.63;82.89
6020;BME280;3038;51.122;6.840;2022-10-31T03:05:28;101775.91;;;12.65;82.35
6020;BME280;3038;51.122;6.840;2022-10-31T03:10:53;101780.50;;;12.73;83.17
6020;BME280;3038;51.122;6.840;2022-10-31T03:13:41;101780.72;;;12.79;83.13
6020;BME280;3038;51.122;6.840;2022-10-31T03:16:18;101774.28;;;12.82;82.41
6020;BME280;3038;51.122;6.840;2022-10-31T03:21:41;101770.56;;;12.93;82.92
6020;BME280;3038;51.122;6.840;2022-10-31T03:24:08;101774.75;;;12.95;82.59
6020;BME280;3038;51.122;6.840;2022-10-31T03:26:38;101775.13;;;13.00;82.68
6020;BME280;3038;51.122;6.840;2022-10-31T03:29:09;101765.03;;;13.04;82.88
6020;BME280;3038;51.122;6.840;2022-10-31T03:31:41;101766.94;;;13.11;82.95
6020;BME280;3038;51.122;6.840;2022-10-31T03:34:08;101757.22;;;13.20;82.65
6020;BME280;3038;51.122;6.840;2022-10-31T03:36:38;101772.31;;;13.29;82.49
6020;BME280;3038;51.122;6.840;2022-10-31T03:39:09;101774.00;;;13.30;82.45
6020;BME280;3038;51.122;6.840;2022-10-31T03:41:38;101770.34;;;13.31;82.52
6020;BME280;3038;51.122;6.840;2022-10-31T03:44:10;101774.22;;;13.37;82.16
6020;BME280;3038;51.122;6.840;2022-10-31T03:46:37;101767.97;;;13.46;82.17
6020;BME280;3038;51.122;6.840;2022-10-31T03:49:02;101771.56;;;13.55;81.60
6020;BME280;3038;51.122;6.840;2022-10-31T03:54:37;101764.69;;;13.70;81.02
6020;BME280;3038;51.122;6.840;2022-10-31T03:57:22;101767.72;;;13.75;81.09
6020;BME280;3038;51.122;6.840;2022-10-31T03:59:55;101764.75;;;13.78;80.62
6020;BME280;3038;51.122;6.840;2022-10-31T04:02:26;101761.09;;;13.79;80.70
6020;BME280;3038;51.122;6.840;2022-10-31T04:04:55;101757.06;;;13.75;80.44
6020;BME280;3038;51.122;6.840;2022-10-31T04:07:22;101764.69;;;13.70;80.53
6020;BME280;3038;51.122;6.840;2022-10-31T04:09:53;101765.31;;;13.64;80.62
6020;BME280;3038;51.122;6.840;2022-10-31T04:12:19;101766.53;;;13.52;80.84
6020;BME280;3038;51.122;6.840;2022-10-31T04:14:47;101763.47;;;13.47;81.19
6020;BME280;3038;51.122;6.840;2022-10-31T04:17:15;101756.22;;;13.39;81.54
6020;BME280;3038;51.122;6.840;2022-10-31T04:19:42;101761.63;;;13.29;81.45
6020;BME280;3038;51.122;6.840;2022-10-31T04:22:07;101753.34;;;13.32;81.13
6020;BME280;3038;51.122;6.840;2022-10-31T04:24:33;101750.69;;;13.32;81.24
6020;BME280;3038;51.122;6.840;2022-10-31T04:26:58;101752.66;;;13.30;80.69
6020;BME280;3038;51.122;6.840;2022-10-31T04:29:23;101753.78;;;13.28;81.37
6020;BME280;3038;51.122;6.840;2022-10-31T04:31:49;101746.25;;;13.23;81.18
6020;BME280;3038;51.122;6.840;2022-10-31T04:34:15;101746.84;;;13.17;81.30
6020;BME280;3038;51.122;6.840;2022-10-31T04:36:41;101748.13;;;13.13;81.88
6020;BME280;3038;51.122;6.840;2022-10-31T04:39:06;101745.22;;;13.06;81.27
6020;BME280;3038;51.122;6.840;2022-10-31T04:41:31;101746.34;;;13.04;81.63
6020;BME280;3038;51.122;6.840;2022-10-31T04:43:57;101753.69;;;13.02;81.25
6020;BME280;3038;51.122;6.840;2022-10-31T04:46:22;101750.31;;;13.00;81.26
6020;BME280;3038;51.122;6.840;2022-10-31T04:48:48;101750.31;;;13.00;81.63
6020;BME280;3038;51.122;6.840;2022-10-31T04:51:13;101748.25;;;12.94;81.92
6020;BME280;3038;51.122;6.840;2022-10-31T04:53:39;101741.41;;;12.91;81.70
6020;BME280;3038;51.122;6.840;2022-10-31T04:56:04;101738.25;;;12.96;81.82
6020;BME280;3038;51.122;6.840;2022-10-31T04:58:30;101738.25;;;12.96;81.40
6020;BME280;3038;51.122;6.840;2022-10-31T05:00:55;101734.94;;;12.94;81.83
6020;BME280;3038;51.122;6.840;2022-10-31T05:03:21;101731.59;;;12.92;81.94
6020;BME280;3038;51.122;6.840;2022-10-31T05:05:47;101734.94;;;12.94;81.55
6020;BME280;3038;51.122;6.840;2022-10-31T05:08:13;101732.25;;;12.94;81.39
6020;BME280;3038;51.122;6.840;2022-10-31T05:10:39;101721.59;;;12.94;81.69
6020;BME280;3038;51.122;6.840;2022-10-31T05:13:04;101724.94;;;12.96;81.57
6020;BME280;3038;51.122;6.840;2022-10-31T05:15:30;101732.09;;;12.95;81.78
6020;BME280;3038;51.122;6.840;2022-10-31T05:17:56;101732.25;;;12.94;81.44
6020;BME280;3038;51.122;6.840;2022-10-31T05:20:24;101730.75;;;12.91;81.34
6020;BME280;3038;51.122;6.840;2022-10-31T05:22:52;101733.88;;;12.86;81.59
6020;BME280;3038;51.122;6.840;2022-10-31T05:25:19;101733.16;;;12.84;81.90
6020;BME280;3038;51.122;6.840;2022-10-31T05:27:46;101728.66;;;12.85;81.66
6020;BME280;3038;51.122;6.840;2022-10-31T05:30:13;101722.22;;;12.88;81.55
6020;BME280;3038;51.122;6.840;2022-10-31T05:32:47;101715.66;;;12.82;82.10
6020;BME280;3038;51.122;6.840;2022-10-31T05:35:18;101718.78;;;12.77;82.42
6020;BME280;3038;51.122;6.840;2022-10-31T05:37:44;101715.72;;;12.72;82.50
6020;BME280;3038;51.122;6.840;2022-10-31T05:40:11;101713.72;;;12.74;82.55
6020;BME280;3038;51.122;6.840;2022-10-31T05:42:41;101716.78;;;12.79;82.02
6020;BME280;3038;51.122;6.840;2022-10-31T05:45:08;101718.44;;;12.80;82.04
6020;BME280;3038;51.122;6.840;2022-10-31T05:47:34;101714.13;;;12.79;82.06
6020;BME280;3038;51.122;6.840;2022-10-31T05:49:59;101715.41;;;12.75;82.13
6020;BME280;3038;51.122;6.840;2022-10-31T05:52:25;101720.06;;;12.73;82.28
6020;BME280;3038;51.122;6.840;2022-10-31T05:54:50;101718.38;;;12.72;82.28
6020;BME280;3038;51.122;6.840;2022-10-31T05:57:16;101715.84;;;12.71;82.04
6020;BME280;3038;51.122;6.840;2022-10-31T05:59:41;101713.63;;;12.66;82.15
6020;BME280;3038;51.122;6.840;2022-10-31T06:02:06;101718.28;;;12.64;82.42
6020;BME280;3038;51.122;6.840;2022-10-31T06:04:32;101711.84;;;12.57;82.34
6020;BME280;3038;51.122;6.840;2022-10-31T06:06:57;101710.19;;;12.56;82.39
6020;BME280;3038;51.122;6.840;2022-10-31T06:09:23;101709.19;;;12.57;82.10
6020;BME280;3038;51.122;6.840;2022-10-31T06:11:48;101720.53;;;12.59;81.89
6020;BME280;3038;51.122;6.840;2022-10-31T06:14:13;101710.34;;;12.54;82.23
6020;BME280;3038;51.122;6.840;2022-10-31T06:16:39;101712.84;;;12.56;82.15
6020;BME280;3038;51.122;6.840;2022-10-31T06:19:04;101717.19;;;12.57;82.22
6020;BME280;3038;51.122;6.840;2022-10-31T06:21:29;101724.50;;;12.55;82.48
6020;BME280;3038;51.122;6.840;2022-10-31T06:23:55;101716.50;;;12.55;82.28
6020;BME280;3038;51.122;6.840;2022-10-31T06:26:20;101728.81;;;12.56;82.51
6020;BME280;3038;51.122;6.840;2022-10-31T06:28:46;101721.16;;;12.53;82.16
6020;BME280;3038;51.122;6.840;2022-10-31T06:31:11;101719.88;;;12.47;82.00
6020;BME280;3038;51.122;6.840;2022-10-31T06:33:36;101727.03;;;12.47;82.50
6020;BME280;3038;51.122;6.840;2022-10-31T06:36:02;101727.34;;;12.44;82.26
6020;BME280;3038;51.122;6.840;2022-10-31T06:38:28;101727.63;;;12.41;82.59
6020;BME280;3038;51.122;6.840;2022-10-31T06:40:54;101729.63;;;12.39;82.53
6020;BME280;3038;51.122;6.840;2022-10-31T06:43:20;101725.25;;;12.38;83.14
6020;BME280;3038;51.122;6.840;2022-10-31T06:45:46;101725.97;;;12.40;83.01
6020;BME280;3038;51.122;6.840;2022-10-31T06:48:12;101721.03;;;12.45;82.54
6020;BME280;3038;51.122;6.840;2022-10-31T06:50:37;101714.13;;;12.52;82.03
6020;BME280;3038;51.122;6.840;2022-10-31T06:53:03;101707.22;;;12.59;82.37
6020;BME280;3038;51.122;6.840;2022-10-31T06:55:28;101704.56;;;12.59;82.29
6020;BME280;3038;51.122;6.840;2022-10-31T06:57:59;101707.91;;;12.61;82.75
6020;BME280;3038;51.122;6.840;2022-10-31T07:00:25;101709.28;;;12.65;82.76
6020;BME280;3038;51.122;6.840;2022-10-31T07:02:58;101719.66;;;12.68;83.08
6020;BME280;3038;51.122;6.840;2022-10-31T07:05:25;101716.69;;;12.71;82.66
6020;BME280;3038;51.122;6.840;2022-10-31T07:07:59;101719.06;;;12.74;83.74
6020;BME280;3038;51.122;6.840;2022-10-31T07:10:26;101720.16;;;12.81;83.05
6020;BME280;3038;51.122;6.840;2022-10-31T07:12:58;101725.16;;;12.84;83.40
6020;BME280;3038;51.122;6.840;2022-10-31T07:15:25;101715.88;;;12.89;83.03
6020;BME280;3038;51.122;6.840;2022-10-31T07:17:51;101729.03;;;12.90;82.95
6020;BME280;3038;51.122;6.840;2022-10-31T07:20:16;101729.22;;;12.89;83.17
6020;BME280;3038;51.122;6.840;2022-10-31T07:22:42;101731.13;;;12.96;82.94
6020;BME280;3038;51.122;6.840;2022-10-31T07:25:08;101734.69;;;13.05;82.68
6020;BME280;3038;51.122;6.840;2022-10-31T07:27:40;101732.81;;;13.15;81.95
6020;BME280;3038;51.122;6.840;2022-10-31T07:30:07;101733.47;;;13.27;81.77
6020;BME280;3038;51.122;6.840;2022-10-31T07:32:44;101730.16;;;13.33;81.41
6020;BME280;3038;51.122;6.840;2022-10-31T07:35:12;101730.88;;;13.35;81.02
6020;BME280;3038;51.122;6.840;2022-10-31T07:37:38;101738.63;;;13.28;81.48
6020;BME280;3038;51.122;6.840;2022-10-31T07:40:05;101739.84;;;13.34;81.12
6020;BME280;3038;51.122;6.840;2022-10-31T07:42:39;101740.00;;;13.32;81.50
6020;BME280;3038;51.122;6.840;2022-10-31T07:45:05;101745.63;;;13.29;81.29
6020;BME280;3038;51.122;6.840;2022-10-31T07:47:50;101741.09;;;13.40;81.42
6020;BME280;3038;51.122;6.840;2022-10-31T07:50:21;101748.38;;;13.37;81.36
6020;BME280;3038;51.122;6.840;2022-10-31T07:52:47;101745.81;;;13.46;81.19
6020;BME280;3038;51.122;6.840;2022-10-31T07:55:13;101757.84;;;13.50;80.77
6020;BME280;3038;51.122;6.840;2022-10-31T07:57:39;101753.56;;;13.57;80.81
6020;BME280;3038;51.122;6.840;2022-10-31T08:00:06;101752.94;;;13.63;80.63
6020;BME280;3038;51.122;6.840;2022-10-31T08:02:33;101752.34;;;13.69;80.40
6020;BME280;3038;51.122;6.840;2022-10-31T08:04:58;101745.00;;;13.71;80.09
6020;BME280;3038;51.122;6.840;2022-10-31T08:07:25;101752.09;;;13.80;79.87
6020;BME280;3038;51.122;6.840;2022-10-31T08:09:50;101746.81;;;13.88;79.55
6020;BME280;3038;51.122;6.840;2022-10-31T08:12:16;101743.69;;;13.93;79.59
6020;BME280;3038;51.122;6.840;2022-10-31T08:14:41;101741.38;;;13.98;79.28
6020;BME280;3038;51.122;6.840;2022-10-31T08:17:07;101738.22;;;14.03;78.95
6020;BME280;3038;51.122;6.840;2022-10-31T08:19:32;101745.06;;;14.05;78.67
6020;BME280;3038;51.122;6.840;2022-10-31T08:21:57;101740.63;;;14.14;79.00
6020;BME280;3038;51.122;6.840;2022-10-31T08:24:24;101728.03;;;14.32;78.40
6020;BME280;3038;51.122;6.840;2022-10-31T08:26:49;101731.59;;;14.41;77.45
6020;BME280;3038;51.122;6.840;2022-10-31T08:29:15;101724.88;;;14.37;77.53
6020;BME280;3038;51.122;6.840;2022-10-31T08:31:41;101724.78;;;14.47;77.14
6020;BME280;3038;51.122;6.840;2022-10-31T08:34:07;101722.34;;;14.61;77.17
6020;BME280;3038;51.122;6.840;2022-10-31T08:36:33;101731.88;;;14.64;76.87
6020;BME280;3038;51.122;6.840;2022-10-31T08:38:58;101732.53;;;14.58;76.87
6020;BME280;3038;51.122;6.840;2022-10-31T08:41:24;101731.16;;;14.54;77.12
6020;BME280;3038;51.122;6.840;2022-10-31T08:43:49;101720.84;;;14.67;76.70
6020;BME280;3038;51.122;6.840;2022-10-31T08:46:15;101714.03;;;14.73;76.84
6020;BME280;3038;51.122;6.840;2022-10-31T08:48:40;101711.91;;;14.84;76.62
6020;BME280;3038;51.122;6.840;2022-10-31T08:51:06;101713.25;;;14.97;76.51
6020;BME280;3038;51.122;6.840;2022-10-31T08:53:32;101707.09;;;15.04;76.15
6020;BME280;3038;51.122;6.840;2022-10-31T08:55:57;101706.41;;;15.10;76.25
6020;BME280;3038;51.122;6.840;2022-10-31T08:58:23;101706.59;;;15.17;76.17
6020;BME280;3038;51.122;6.840;2022-10-31T09:00:52;101703.59;;;15.20;75.83
6020;BME280;3038;51.122;6.840;2022-10-31T09:03:22;101705.41;;;15.28;76.17
6020;BME280;3038;51.122;6.840;2022-10-31T09:05:48;101701.91;;;15.27;75.13
6020;BME280;3038;51.122;6.840;2022-10-31T09:08:14;101700.56;;;15.31;75.38
6020;BME280;3038;51.122;6.840;2022-10-31T09:10:40;101693.88;;;15.52;74.78
6020;BME280;3038;51.122;6.840;2022-10-31T09:13:10;101690.38;;;15.76;74.47
6020;BME280;3038;51.122;6.840;2022-10-31T09:15:38;101681.09;;;16.11;73.64
6020;BME280;3038;51.122;6.840;2022-10-31T09:18:04;101682.66;;;16.36;72.93
6020;BME280;3038;51.122;6.840;2022-10-31T09:20:31;101680.78;;;16.45;72.27
6020;BME280;3038;51.122;6.840;2022-10-31T09:22:58;101683.22;;;16.24;72.11
6020;BME280;3038;51.122;6.840;2022-10-31T09:25:24;101680.38;;;16.25;71.70
6020;BME280;3038;51.122;6.840;2022-10-31T09:27:50;101679.25;;;16.11;72.33
6020;BME280;3038;51.122;6.840;2022-10-31T09:30:15;101674.97;;;16.33;72.58
6020;BME280;3038;51.122;6.840;2022-10-31T09:32:40;101666.56;;;16.67;71.60
6020;BME280;3038;51.122;6.840;2022-10-31T09:35:06;101665.97;;;17.34;70.04
6020;BME280;3038;51.122;6.840;2022-10-31T09:37:32;101664.59;;;18.06;67.88
6020;BME280;3038;51.122;6.840;2022-10-31T09:39:57;101661.56;;;18.60;65.88
6020;BME280;3038;51.122;6.840;2022-10-31T09:45:26;101655.75;;;19.42;61.50
6020;BME280;3038;51.122;6.840;2022-10-31T09:53:27;101645.38;;;19.67;60.01
6020;BME280;3038;51.122;6.840;2022-10-31T09:55:57;101641.59;;;19.33;61.39
6020;BME280;3038;51.122;6.840;2022-10-31T09:58:26;101639.81;;;19.68;61.36
6020;BME280;3038;51.122;6.840;2022-10-31T10:00:53;101639.19;;;19.66;60.42
6020;BME280;3038;51.122;6.840;2022-10-31T10:06:19;101636.69;;;19.99;58.23
6020;BME280;3038;51.122;6.840;2022-10-31T10:08:46;101624.69;;;20.09;59.86
6020;BME280;3038;51.122;6.840;2022-10-31T10:14:04;101617.06;;;20.80;58.47
6020;BME280;3038;51.122;6.840;2022-10-31T10:25:23;101606.81;;;21.88;53.72
6020;BME280;3038;51.122;6.840;2022-10-31T10:28:19;101596.28;;;21.27;55.44
6020;BME280;3038;51.122;6.840;2022-10-31T10:30:49;101598.75;;;20.69;57.78
6020;BME280;3038;51.122;6.840;2022-10-31T10:33:27;101581.19;;;20.18;58.32
6020;BME280;3038;51.122;6.840;2022-10-31T10:35:57;101581.88;;;19.58;60.47
6020;BME280;3038;51.122;6.840;2022-10-31T10:38:28;101578.09;;;19.45;61.34
6020;BME280;3038;51.122;6.840;2022-10-31T10:40:55;101571.91;;;19.23;61.67
6020;BME280;3038;51.122;6.840;2022-10-31T10:43:22;101566.50;;;19.17;61.58
6020;BME280;3038;51.122;6.840;2022-10-31T10:46:24;101554.13;;;19.29;62.01
6020;BME280;3038;51.122;6.840;2022-10-31T10:49:18;101548.81;;;19.36;61.32
6020;BME280;3038;51.122;6.840;2022-10-31T10:52:15;101549.88;;;19.41;60.92
6020;BME280;3038;51.122;6.840;2022-10-31T10:57:45;101555.66;;;20.21;59.73
6020;BME280;3038;51.122;6.840;2022-10-31T11:00:19;101559.13;;;20.76;58.13
6020;BME280;3038;51.122;6.840;2022-10-31T11:02:45;101561.41;;;20.66;58.57
6020;BME280;3038;51.122;6.840;2022-10-31T11:05:20;101551.44;;;20.73;57.60
6020;BME280;3038;51.122;6.840;2022-10-31T11:07:47;101544.38;;;20.72;58.59
6020;BME280;3038;51.122;6.840;2022-10-31T11:10:14;101539.19;;;20.90;57.86
6020;BME280;3038;51.122;6.840;2022-10-31T11:12:40;101529.44;;;20.76;57.87
6020;BME280;3038;51.122;6.840;2022-10-31T11:15:19;101532.97;;;20.83;57.00
6020;BME280;3038;51.122;6.840;2022-10-31T11:17:48;101523.22;;;20.95;56.81
6020;BME280;3038;51.122;6.840;2022-10-31T11:22:44;101531.50;;;21.14;56.39
6020;BME280;3038;51.122;6.840;2022-10-31T11:27:45;101521.00;;;22.53;54.12
6020;BME280;3038;51.122;6.840;2022-10-31T11:30:13;101513.88;;;22.84;52.78
6020;BME280;3038;51.122;6.840;2022-10-31T11:32:48;101506.34;;;23.29;51.29
6020;BME280;3038;51.122;6.840;2022-10-31T11:35:17;101507.38;;;23.72;50.57
6020;BME280;3038;51.122;6.840;2022-10-31T11:37:45;101504.78;;;23.95;49.69
6020;BME280;3038;51.122;6.840;2022-10-31T11:42:42;101483.31;;;23.57;49.62
6020;BME280;3038;51.122;6.840;2022-10-31T11:45:17;101480.84;;;23.55;49.38
6020;BME280;3038;51.122;6.840;2022-10-31T11:47:47;101471.16;;;23.96;48.73
6020;BME280;3038;51.122;6.840;2022-10-31T11:50:20;101465.59;;;24.33;47.23
6020;BME280;3038;51.122;6.840;2022-10-31T11:52:47;101462.50;;;24.18;46.98
6020;BME280;3038;51.122;6.840;2022-10-31T11:55:31;101457.09;;;24.18;46.66
6020;BME280;3038;51.122;6.840;2022-10-31T11:57:57;101448.16;;;24.41;46.52
6020;BME280;3038;51.122;6.840;2022-10-31T12:00:24;101453.44;;;24.24;46.62
6020;BME280;3038;51.122;6.840;2022-10-31T12:02:50;101451.16;;;24.09;47.03
6020;BME280;3038;51.122;6.840;2022-10-31T12:05:23;101445.13;;;24.37;45.53
6020;BME280;3038;51.122;6.840;2022-10-31T12:07:50;101445.13;;;24.49;46.27
6020;BME280;3038;51.122;6.840;2022-10-31T12:10:19;101443.66;;;24.34;45.73
6020;BME280;3038;51.122;6.840;2022-10-31T12:13:25;101435.94;;;24.61;44.43
6020;BME280;3038;51.122;6.840;2022-10-31T12:16:04;101430.97;;;24.58;44.83
6020;BME280;3038;51.122;6.840;2022-10-31T12:18:41;101424.69;;;24.70;45.18
6020;BME280;3038;51.122;6.840;2022-10-31T12:24:24;101410.75;;;23.89;45.42
6020;BME280;3038;51.122;6.840;2022-10-31T12:46:26;101377.91;;;22.07;51.14
6020;BME280;3038;51.122;6.840;2022-10-31T12:57:27;101337.53;;;21.49;53.09
6020;BME280;3038;51.122;6.840;2022-10-31T13:00:11;101342.28;;;21.53;53.35
6020;BME280;3038;51.122;6.840;2022-10-31T13:05:28;101320.69;;;21.53;52.73
6020;BME280;3038;51.122;6.840;2022-10-31T13:08:06;101320.97;;;21.70;52.44
6020;BME280;3038;51.122;6.840;2022-10-31T13:10:39;101313.09;;;21.69;52.45
6020;BME280;3038;51.122;6.840;2022-10-31T13:13:26;101302.34;;;21.55;52.90
6020;BME280;3038;51.122;6.840;2022-10-31T13:15:56;101293.56;;;21.35;53.28
6020;BME280;3038;51.122;6.840;2022-10-31T13:18:40;101289.25;;;21.21;53.15
6020;BME280;3038;51.122;6.840;2022-10-31T13:21:12;101287.22;;;21.10;53.05
6020;BME280;3038;51.122;6.840;2022-10-31T13:23:43;101284.22;;;21.31;52.94
6020;BME280;3038;51.122;6.840;2022-10-31T13:26:13;101284.25;;;21.24;53.08
6020;BME280;3038;51.122;6.840;2022-10-31T13:29:30;101284.91;;;21.20;53.23
6020;BME280;3038;51.122;6.840;2022-10-31T13:31:56;101282.63;;;21.17;53.56
6020;BME280;3038;51.122;6.840;2022-10-31T13:34:36;101288.47;;;21.14;53.06
6020;BME280;3038;51.122;6.840;2022-10-31T13:45:15;101274.84;;;20.95;53.79
6020;BME280;3038;51.122;6.840;2022-10-31T13:47:41;101261.47;;;21.14;53.71
6020;BME280;3038;51.122;6.840;2022-10-31T13:50:29;101255.06;;;21.01;53.70
6020;BME280;3038;51.122;6.840;2022-10-31T13:53:19;101252.34;;;21.08;53.83
6020;BME280;3038;51.122;6.840;2022-10-31T13:58:32;101238.94;;;20.88;54.14
6020;BME280;3038;51.122;6.840;2022-10-31T14:01:16;101243.78;;;20.73;54.65
6020;BME280;3038;51.122;6.840;2022-10-31T14:03:45;101249.88;;;20.55;54.62
6020;BME280;3038;51.122;6.840;2022-10-31T14:06:11;101245.72;;;20.52;55.07
6020;BME280;3038;51.122;6.840;2022-10-31T14:08:43;101238.66;;;20.45;54.66
6020;BME280;3038;51.122;6.840;2022-10-31T14:11:24;101222.69;;;20.43;54.28
6020;BME280;3038;51.122;6.840;2022-10-31T14:13:53;101221.66;;;20.44;54.69
6020;BME280;3038;51.122;6.840;2022-10-31T14:16:27;101211.69;;;20.45;54.88
6020;BME280;3038;51.122;6.840;2022-10-31T14:19:08;101207.16;;;20.45;55.09
6020;BME280;3038;51.122;6.840;2022-10-31T14:21:41;101204.84;;;20.49;54.93
6020;BME280;3038;51.122;6.840;2022-10-31T14:24:15;101197.63;;;20.36;55.16
6020;BME280;3038;51.122;6.840;2022-10-31T14:29:27;101170.69;;;20.23;55.45
6020;BME280;3038;51.122;6.840;2022-10-31T14:32:13;101172.16;;;20.19;55.28
6020;BME280;3038;51.122;6.840;2022-10-31T14:34:42;101165.53;;;20.21;55.54
6020;BME280;3038;51.122;6.840;2022-10-31T14:50:59;101151.09;;;19.89;56.21
6020;BME280;3038;51.122;6.840;2022-10-31T14:53:36;101154.81;;;19.88;56.79
6020;BME280;3038;51.122;6.840;2022-10-31T14:56:09;101141.34;;;19.82;56.37
6020;BME280;3038;51.122;6.840;2022-10-31T14:58:39;101141.97;;;19.77;57.14
6020;BME280;3038;51.122;6.840;2022-10-31T15:01:06;101140.31;;;19.76;56.47
6020;BME280;3038;51.122;6.840;2022-10-31T15:03:38;101124.16;;;19.83;56.68
6020;BME280;3038;51.122;6.840;2022-10-31T15:06:14;101121.06;;;19.79;57.02
6020;BME280;3038;51.122;6.840;2022-10-31T15:08:45;101111.31;;;19.78;56.52
6020;BME280;3038;51.122;6.840;2022-10-31T15:11:23;101121.28;;;19.71;57.03
6020;BME280;3038;51.122;6.840;2022-10-31T15:13:54;101117.97;;;19.69;57.19
6020;BME280;3038;51.122;6.840;2022-10-31T15:21:19;101098.47;;;19.47;57.26
6020;BME280;3038;51.122;6.840;2022-10-31T15:23:46;101095.16;;;19.51;57.26
6020;BME280;3038;51.122;6.840;2022-10-31T15:26:20;101088.13;;;19.50;57.19
6020;BME280;3038;51.122;6.840;2022-10-31T15:28:58;101085.84;;;19.47;57.49